Time;durP1;ratioP1;P1;durP2;ratioP2;P2;SDS_P1;SDS_P2;PMS_P1;PMS_P2;Temp;Humidity;BMP_temperature;BMP_pressure;BME280_temperature;BME280_humidity;BME280_pressure;Samples;Min_cycle;Max_cycle;Signal;HPM_P1;HPM_P2
2023/01/19 00:01:29;;;;;;;9.48;5.32;;;;;;;;;;4948805;28;20579;-84
2023/01/19 00:03:55;;;;;;;14.63;6.00;;;;;;;;;;4949145;29;20099;-91
2023/01/19 00:06:21;;;;;;;12.48;5.00;;;;;;;;;;4949164;29;20122;-73
2023/01/19 00:08:49;;;;;;;13.88;5.32;;;;;;;;;;4951141;29;20081;-73
2023/01/19 00:11:18;;;;;;;12.68;6.05;;;;;;;;;;4950906;28;20294;-73
2023/01/19 00:13:50;;;;;;;10.57;4.72;;;;;;;;;;4949971;29;20035;-76
2023/01/19 00:16:17;;;;;;;8.52;3.85;;;;;;;;;;4948584;28;20110;-73
2023/01/19 00:18:47;;;;;;;11.48;5.85;;;;;;;;;;4949259;29;20461;-82
2023/01/19 00:21:13;;;;;;;17.30;6.43;;;;;;;;;;4950027;28;20054;-73
2023/01/19 00:23:40;;;;;;;11.65;6.55;;;;;;;;;;4951387;29;20034;-74
2023/01/19 00:26:07;;;;;;;13.05;6.18;;;;;;;;;;4951606;29;20107;-89
2023/01/19 00:28:33;;;;;;;9.07;5.65;;;;;;;;;;4952773;28;20031;-72
2023/01/19 00:30:59;;;;;;;12.02;4.82;;;;;;;;;;4952409;28;20305;-84
2023/01/19 00:33:26;;;;;;;12.02;5.50;;;;;;;;;;4952283;29;20473;-73
2023/01/19 00:35:53;;;;;;;9.63;5.40;;;;;;;;;;4951578;29;20101;-75
2023/01/19 00:38:20;;;;;;;10.43;5.38;;;;;;;;;;4952452;28;20019;-74
2023/01/19 00:40:46;;;;;;;16.60;6.72;;;;;;;;;;4951017;29;20027;-72
2023/01/19 00:43:12;;;;;;;13.38;6.03;;;;;;;;;;4951870;29;20027;-76
2023/01/19 00:45:38;;;;;;;14.18;5.25;;;;;;;;;;4952529;29;20032;-74
2023/01/19 00:48:05;;;;;;;11.23;5.07;;;;;;;;;;4951343;29;20027;-74
2023/01/19 00:50:31;;;;;;;15.63;6.13;;;;;;;;;;4951353;29;20420;-78
2023/01/19 00:53:01;;;;;;;15.50;5.50;;;;;;;;;;4951337;29;20051;-73
2023/01/19 00:55:28;;;;;;;11.82;4.80;;;;;;;;;;4951818;28;20042;-75
2023/01/19 00:57:54;;;;;;;10.07;4.68;;;;;;;;;;4951205;29;20031;-72
2023/01/19 01:00:20;;;;;;;13.77;6.03;;;;;;;;;;4951167;29;20078;-74
2023/01/19 01:02:47;;;;;;;9.60;4.85;;;;;;;;;;4950971;29;20201;-74
2023/01/19 01:05:13;;;;;;;13.02;5.55;;;;;;;;;;4951493;29;20035;-86
2023/01/19 01:07:40;;;;;;;13.93;5.75;;;;;;;;;;4951461;29;20028;-85
2023/01/19 01:10:10;;;;;;;12.82;6.03;;;;;;;;;;4950028;29;20043;-86
2023/01/19 01:12:37;;;;;;;10.77;5.40;;;;;;;;;;4950088;29;20485;-83
2023/01/19 01:15:04;;;;;;;13.02;6.57;;;;;;;;;;4951924;29;20027;-82
2023/01/19 01:17:30;;;;;;;8.82;4.93;;;;;;;;;;4950936;29;20499;-78
2023/01/19 01:19:56;;;;;;;13.57;4.80;;;;;;;;;;4950987;29;20032;-84
2023/01/19 01:22:22;;;;;;;11.20;5.00;;;;;;;;;;4951159;29;20038;-84
2023/01/19 01:24:48;;;;;;;12.95;6.95;;;;;;;;;;4950879;29;20143;-84
2023/01/19 01:27:14;;;;;;;11.40;4.93;;;;;;;;;;4950632;29;20081;-78
2023/01/19 01:29:45;;;;;;;8.43;3.45;;;;;;;;;;4950918;29;20110;-82
2023/01/19 01:32:11;;;;;;;14.38;5.60;;;;;;;;;;4948667;28;20047;-88
2023/01/19 01:34:37;;;;;;;11.05;4.57;;;;;;;;;;4950969;29;20110;-81
2023/01/19 01:37:03;;;;;;;8.95;4.53;;;;;;;;;;4950743;29;20174;-79
2023/01/19 01:39:29;;;;;;;9.68;4.28;;;;;;;;;;4951018;29;20509;-82
2023/01/19 01:41:55;;;;;;;10.02;4.68;;;;;;;;;;4950128;29;20039;-78
2023/01/19 01:44:48;;;;;;;9.32;5.10;;;;;;;;;;4950454;29;20540;-80
2023/01/19 01:47:14;;;;;;;10.00;5.32;;;;;;;;;;4950249;28;20039;-82
2023/01/19 01:49:40;;;;;;;11.27;4.80;;;;;;;;;;4950317;29;20082;-78
2023/01/19 01:52:06;;;;;;;9.63;3.90;;;;;;;;;;4950322;29;20031;-78
2023/01/19 01:54:33;;;;;;;10.20;3.65;;;;;;;;;;4950130;29;20031;-79
2023/01/19 01:57:02;;;;;;;11.23;4.18;;;;;;;;;;4950697;29;20188;-76
2023/01/19 01:59:33;;;;;;;;;;;;;;;;;;4967321;28;20081;-74
2023/01/19 02:04:48;;;;;;;9.02;3.80;;;;;;;;;;4954532;29;20046;-86
2023/01/19 02:15:31;;;;;;;7.25;4.88;;;;;;;;;;4961297;29;20082;-74
2023/01/19 02:17:57;;;;;;;8.65;3.85;;;;;;;;;;4974067;28;20023;-75
2023/01/19 02:20:25;;;;;;;7.07;3.88;;;;;;;;;;4962420;29;20034;-74
2023/01/19 02:22:51;;;;;;;6.00;3.30;;;;;;;;;;4961144;29;20023;-74
2023/01/19 02:25:19;;;;;;;6.13;3.20;;;;;;;;;;4954150;29;20027;-78
2023/01/19 02:27:45;;;;;;;7.78;3.13;;;;;;;;;;4955865;28;20019;-75
2023/01/19 02:30:12;;;;;;;9.15;3.80;;;;;;;;;;4953649;29;20087;-82
2023/01/19 02:32:38;;;;;;;8.65;2.97;;;;;;;;;;4951412;29;20074;-80
2023/01/19 02:35:04;;;;;;;7.85;3.20;;;;;;;;;;4951925;28;20039;-78
2023/01/19 02:37:33;;;;;;;10.07;3.90;;;;;;;;;;4971961;28;20117;-78
2023/01/19 02:40:01;;;;;;;11.93;3.23;;;;;;;;;;4971956;28;20031;-79
2023/01/19 02:42:29;;;;;;;7.57;3.72;;;;;;;;;;4971661;28;20539;-78
2023/01/19 02:44:56;;;;;;;7.07;3.65;;;;;;;;;;4972241;28;20453;-75
2023/01/19 02:47:22;;;;;;;7.85;3.55;;;;;;;;;;4971763;28;20019;-78
2023/01/19 02:49:58;;;;;;;6.80;3.67;;;;;;;;;;4970558;28;20031;-81
2023/01/19 02:52:25;;;;;;;4.72;3.20;;;;;;;;;;4971801;28;20027;-77
2023/01/19 02:54:54;;;;;;;9.55;3.33;;;;;;;;;;4970686;28;20031;-79
2023/01/19 02:57:26;;;;;;;8.10;4.63;;;;;;;;;;4971772;28;20026;-81
2023/01/19 02:59:58;;;;;;;5.95;4.15;;;;;;;;;;4971413;28;20031;-74
2023/01/19 03:02:27;;;;;;;5.68;3.55;;;;;;;;;;4971316;28;20058;-75
2023/01/19 03:05:12;;;;;;;7.70;3.30;;;;;;;;;;4963409;28;20439;-78
2023/01/19 03:07:49;;;;;;;7.90;4.30;;;;;;;;;;4963996;28;20125;-76
2023/01/19 03:10:18;;;;;;;7.57;3.45;;;;;;;;;;4950488;28;20066;-76
2023/01/19 03:12:47;;;;;;;10.23;3.95;;;;;;;;;;4948857;29;20072;-74
2023/01/19 03:15:18;;;;;;;9.95;3.85;;;;;;;;;;4951964;29;20069;-75
2023/01/19 03:17:45;;;;;;;9.35;4.30;;;;;;;;;;4953198;29;20039;-74
2023/01/19 03:20:12;;;;;;;7.32;4.10;;;;;;;;;;4949733;29;20042;-78
2023/01/19 03:22:38;;;;;;;7.22;3.03;;;;;;;;;;4949064;28;20031;-75
2023/01/19 03:25:05;;;;;;;10.05;4.70;;;;;;;;;;4949657;29;20027;-77
2023/01/19 03:27:33;;;;;;;8.50;4.00;;;;;;;;;;4949521;29;20083;-76
2023/01/19 03:30:01;;;;;;;6.88;3.65;;;;;;;;;;4955239;29;20091;-77
2023/01/19 03:32:39;;;;;;;7.68;3.35;;;;;;;;;;4964936;29;20487;-73
2023/01/19 03:35:09;;;;;;;7.95;4.10;;;;;;;;;;4952623;28;20043;-79
2023/01/19 03:37:35;;;;;;;;;;;;;;;;;;4951818;29;20034;-80
2023/01/19 03:40:01;;;;;;;7.25;3.72;;;;;;;;;;4950632;29;19906;-76
2023/01/19 03:42:28;;;;;;;6.55;4.55;;;;;;;;;;4949218;29;20138;-81
2023/01/19 03:44:55;;;;;;;3.25;2.33;;;;;;;;;;4964908;28;20027;-73
2023/01/19 03:47:22;;;;;;;5.18;3.50;;;;;;;;;;4953173;29;20039;-74
2023/01/19 03:49:49;;;;;;;7.72;3.65;;;;;;;;;;4954535;29;20031;-73
2023/01/19 03:52:15;;;;;;;5.72;3.03;;;;;;;;;;4956008;28;20030;-72
2023/01/19 03:54:42;;;;;;;6.90;3.47;;;;;;;;;;4955894;28;20023;-73
2023/01/19 03:57:11;;;;;;;4.40;2.85;;;;;;;;;;4972639;28;20038;-73
2023/01/19 03:59:37;;;;;;;8.95;3.47;;;;;;;;;;4960036;28;20023;-78
2023/01/19 04:02:03;;;;;;;4.85;3.05;;;;;;;;;;4965004;29;20042;-82
2023/01/19 04:04:29;;;;;;;6.75;3.03;;;;;;;;;;4960590;29;20469;-73
2023/01/19 04:06:56;;;;;;;5.45;3.00;;;;;;;;;;4976254;28;20034;-73
2023/01/19 04:09:23;;;;;;;5.38;3.10;;;;;;;;;;4963245;28;20042;-73
2023/01/19 04:11:50;;;;;;;5.03;3.40;;;;;;;;;;4959654;28;20027;-78
2023/01/19 04:14:19;;;;;;;8.38;3.42;;;;;;;;;;4955614;28;20023;-75
2023/01/19 04:16:45;;;;;;;7.00;4.05;;;;;;;;;;4970257;28;20033;-79
2023/01/19 04:19:11;;;;;;;6.13;3.88;;;;;;;;;;4971601;28;20384;-73
2023/01/19 04:21:37;;;;;;;5.65;2.80;;;;;;;;;;4971104;28;20027;-78
2023/01/19 04:24:03;;;;;;;4.03;2.25;;;;;;;;;;4971017;28;20030;-84
2023/01/19 04:26:29;;;;;;;6.05;2.60;;;;;;;;;;4980354;28;20027;-79
2023/01/19 04:28:55;;;;;;;4.60;2.78;;;;;;;;;;4957592;29;20492;-73
2023/01/19 04:31:22;;;;;;;6.00;2.80;;;;;;;;;;4954230;29;20035;-76
2023/01/19 04:33:48;;;;;;;7.88;3.85;;;;;;;;;;4969816;28;20547;-75
2023/01/19 04:36:14;;;;;;;5.40;3.05;;;;;;;;;;4959699;28;20051;-75
2023/01/19 04:38:40;;;;;;;5.32;3.10;;;;;;;;;;4974569;28;20031;-76
2023/01/19 04:41:06;;;;;;;4.50;2.72;;;;;;;;;;4955174;29;20106;-72
2023/01/19 04:43:32;;;;;;;9.60;3.25;;;;;;;;;;4954074;29;20111;-77
2023/01/19 04:45:58;;;;;;;7.50;4.18;;;;;;;;;;4968855;28;20654;-77
2023/01/19 04:48:24;;;;;;;5.45;3.25;;;;;;;;;;4957734;29;20038;-73
2023/01/19 04:50:51;;;;;;;6.68;3.45;;;;;;;;;;4960607;29;20047;-75
2023/01/19 04:53:17;;;;;;;9.75;5.05;;;;;;;;;;4961889;29;20616;-73
2023/01/19 04:55:44;;;;;;;4.43;3.65;;;;;;;;;;4977061;28;20031;-73
2023/01/19 04:58:10;;;;;;;6.72;3.95;;;;;;;;;;4965433;29;20083;-75
2023/01/19 05:00:36;;;;;;;8.35;4.05;;;;;;;;;;4963963;29;20052;-76
2023/01/19 05:03:02;;;;;;;6.88;4.03;;;;;;;;;;4962198;29;20030;-78
2023/01/19 05:05:28;;;;;;;6.55;2.97;;;;;;;;;;4972355;28;20024;-74
2023/01/19 05:07:54;;;;;;;5.38;3.47;;;;;;;;;;4956332;29;20130;-74
2023/01/19 05:10:20;;;;;;;7.78;3.80;;;;;;;;;;4966220;29;20032;-79
2023/01/19 05:12:46;;;;;;;6.80;3.08;;;;;;;;;;4962827;29;20027;-72
2023/01/19 05:15:12;;;;;;;8.05;3.20;;;;;;;;;;4964934;29;20031;-78
2023/01/19 05:17:39;;;;;;;10.02;3.78;;;;;;;;;;4961275;29;20051;-75
2023/01/19 05:20:05;;;;;;;6.93;3.75;;;;;;;;;;4961170;29;20031;-73
2023/01/19 05:22:31;;;;;;;9.82;3.58;;;;;;;;;;4961044;29;20028;-74
2023/01/19 05:24:57;;;;;;;5.20;2.97;;;;;;;;;;4967169;29;20367;-79
2023/01/19 05:27:23;;;;;;;6.72;3.53;;;;;;;;;;4964102;29;20070;-72
2023/01/19 05:29:49;;;;;;;5.55;3.20;;;;;;;;;;4962996;29;20035;-73
2023/01/19 05:32:18;;;;;;;11.60;3.90;;;;;;;;;;4975779;28;20463;-73
2023/01/19 05:34:44;;;;;;;8.35;3.70;;;;;;;;;;4962802;29;20078;-72
2023/01/19 05:37:10;;;;;;;5.93;2.75;;;;;;;;;;4964398;29;20030;-74
2023/01/19 05:39:36;;;;;;;10.82;3.55;;;;;;;;;;4965566;29;20059;-74
2023/01/19 05:42:02;;;;;;;5.57;2.70;;;;;;;;;;4963102;29;20034;-74
2023/01/19 05:44:28;;;;;;;6.18;3.28;;;;;;;;;;4959614;29;20055;-81
2023/01/19 05:46:54;;;;;;;4.07;2.70;;;;;;;;;;4956793;29;20035;-77
2023/01/19 05:49:20;;;;;;;6.35;3.55;;;;;;;;;;4953568;29;20032;-74
2023/01/19 05:51:46;;;;;;;7.75;3.10;;;;;;;;;;4953692;29;20050;-75
2023/01/19 05:54:17;;;;;;;7.50;3.42;;;;;;;;;;4953737;29;20106;-72
2023/01/19 05:56:43;;;;;;;7.50;3.83;;;;;;;;;;4953476;28;20026;-78
2023/01/19 05:59:09;;;;;;;5.72;2.92;;;;;;;;;;4957396;29;20479;-78
2023/01/19 06:01:37;;;;;;;14.82;3.58;;;;;;;;;;4959107;29;20023;-79
2023/01/19 06:04:03;;;;;;;6.75;3.10;;;;;;;;;;4958695;28;20030;-76
2023/01/19 06:06:29;;;;;;;8.15;4.00;;;;;;;;;;4953275;29;20035;-76
2023/01/19 06:08:55;;;;;;;4.72;3.42;;;;;;;;;;4952923;29;20023;-73
2023/01/19 06:11:21;;;;;;;3.95;2.50;;;;;;;;;;4953315;29;20118;-74
2023/01/19 06:13:47;;;;;;;5.05;2.80;;;;;;;;;;4952856;29;20376;-80
2023/01/19 06:16:13;;;;;;;4.72;3.30;;;;;;;;;;4955380;29;20082;-76
2023/01/19 06:18:39;;;;;;;3.38;2.75;;;;;;;;;;4956605;28;20428;-74
2023/01/19 06:21:11;;;;;;;3.35;1.67;;;;;;;;;;4957455;29;20034;-80
2023/01/19 06:23:37;;;;;;;3.15;1.95;;;;;;;;;;4952919;28;20030;-85
2023/01/19 06:26:03;;;;;;;7.22;3.65;;;;;;;;;;4953350;29;20050;-77
2023/01/19 06:28:30;;;;;;;8.15;3.13;;;;;;;;;;4953169;29;20038;-77
2023/01/19 06:30:56;;;;;;;2.63;1.65;;;;;;;;;;4953827;29;20042;-86
2023/01/19 06:33:23;;;;;;;5.72;2.83;;;;;;;;;;4957125;29;20089;-81
2023/01/19 06:35:50;;;;;;;8.45;3.60;;;;;;;;;;4956310;29;20058;-72
2023/01/19 06:38:18;;;;;;;3.53;2.67;;;;;;;;;;4953797;29;20020;-74
2023/01/19 06:40:44;;;;;;;6.93;2.22;;;;;;;;;;4954265;28;20398;-74
2023/01/19 06:43:10;;;;;;;3.25;2.28;;;;;;;;;;4959424;28;20327;-73
2023/01/19 06:45:38;;;;;;;7.13;3.53;;;;;;;;;;4950961;29;20023;-81
2023/01/19 06:48:04;;;;;;;4.32;2.25;;;;;;;;;;4951017;29;20029;-73
2023/01/19 06:50:30;;;;;;;3.00;1.90;;;;;;;;;;4952524;29;20627;-75
2023/01/19 06:52:56;;;;;;;9.10;2.53;;;;;;;;;;4951739;29;20034;-75
2023/01/19 06:55:22;;;;;;;9.10;3.30;;;;;;;;;;4952414;29;20035;-86
2023/01/19 06:57:48;;;;;;;7.57;3.47;;;;;;;;;;4947037;28;20035;-81
2023/01/19 07:00:14;;;;;;;11.07;3.08;;;;;;;;;;4950623;28;20085;-84
2023/01/19 07:02:44;;;;;;;6.72;3.42;;;;;;;;;;4951254;29;20255;-85
2023/01/19 07:05:13;;;;;;;11.05;4.25;;;;;;;;;;4951710;29;20033;-75
2023/01/19 07:07:41;;;;;;;4.47;3.00;;;;;;;;;;4952663;28;20148;-79
2023/01/19 07:10:07;;;;;;;3.80;3.38;;;;;;;;;;4958710;28;20572;-77
2023/01/19 07:12:34;;;;;;;3.88;2.65;;;;;;;;;;4972920;28;20122;-82
2023/01/19 07:15:00;;;;;;;4.18;2.53;;;;;;;;;;4972400;28;20128;-75
2023/01/19 07:17:26;;;;;;;6.82;3.45;;;;;;;;;;4953236;29;20556;-81
2023/01/19 07:19:52;;;;;;;4.60;2.35;;;;;;;;;;4953871;29;20523;-75
2023/01/19 07:22:18;;;;;;;5.78;2.95;;;;;;;;;;4955229;29;20046;-75
2023/01/19 07:24:44;;;;;;;3.08;2.17;;;;;;;;;;4956145;29;20031;-74
2023/01/19 07:27:15;;;;;;;3.65;2.15;;;;;;;;;;4958329;29;20035;-77
2023/01/19 07:29:41;;;;;;;5.13;2.53;;;;;;;;;;4952313;28;20187;-76
2023/01/19 07:32:07;;;;;;;4.50;2.58;;;;;;;;;;4948490;29;20213;-79
2023/01/19 07:34:33;;;;;;;4.22;2.88;;;;;;;;;;4949232;29;20031;-77
2023/01/19 07:36:59;;;;;;;4.75;2.63;;;;;;;;;;4948545;29;20141;-78
2023/01/19 07:39:25;;;;;;;4.40;2.20;;;;;;;;;;4953637;29;20066;-84
2023/01/19 07:41:51;;;;;;;8.15;4.95;;;;;;;;;;4959604;29;20028;-76
2023/01/19 07:44:17;;;;;;;4.97;3.35;;;;;;;;;;4958600;29;20047;-78
2023/01/19 07:46:43;;;;;;;17.05;2.38;;;;;;;;;;4952042;29;20481;-75
2023/01/19 07:49:10;;;;;;;6.05;2.97;;;;;;;;;;4950457;29;20020;-76
2023/01/19 07:51:36;;;;;;;5.80;2.80;;;;;;;;;;4956549;28;20031;-75
2023/01/19 07:54:02;;;;;;;5.55;2.67;;;;;;;;;;4954882;29;20479;-75
2023/01/19 07:56:29;;;;;;;5.82;3.80;;;;;;;;;;4955431;29;20083;-76
2023/01/19 07:58:56;;;;;;;5.57;3.22;;;;;;;;;;4949819;28;20019;-76
2023/01/19 08:01:22;;;;;;;4.25;2.67;;;;;;;;;;4953403;28;20070;-74
2023/01/19 08:03:48;;;;;;;11.32;4.68;;;;;;;;;;4955999;29;20103;-74
2023/01/19 08:06:25;;;;;;;5.40;2.92;;;;;;;;;;4954881;29;20392;-74
2023/01/19 08:08:52;;;;;;;4.40;2.47;;;;;;;;;;4954865;29;20023;-74
2023/01/19 08:11:18;;;;;;;5.22;2.40;;;;;;;;;;4952681;28;20039;-74
2023/01/19 08:13:44;;;;;;;6.00;3.83;;;;;;;;;;4951825;29;20297;-73
2023/01/19 08:16:10;;;;;;;9.55;3.38;;;;;;;;;;4952526;29;20277;-75
2023/01/19 08:18:36;;;;;;;13.30;3.00;;;;;;;;;;4951841;29;20027;-73
2023/01/19 08:21:02;;;;;;;4.75;3.03;;;;;;;;;;4951023;29;20476;-74
2023/01/19 08:23:28;;;;;;;3.92;3.13;;;;;;;;;;4966981;28;20023;-73
2023/01/19 08:25:54;;;;;;;6.35;3.35;;;;;;;;;;4952633;29;20066;-73
2023/01/19 08:28:20;;;;;;;4.90;2.95;;;;;;;;;;4953292;29;20035;-74
2023/01/19 08:30:52;;;;;;;7.35;3.22;;;;;;;;;;4952521;29;20058;-75
2023/01/19 08:33:18;;;;;;;7.75;3.67;;;;;;;;;;4966823;28;20031;-74
2023/01/19 08:35:47;;;;;;;8.45;5.03;;;;;;;;;;4953823;29;20142;-77
2023/01/19 08:38:14;;;;;;;5.50;3.00;;;;;;;;;;4953706;28;20024;-75
2023/01/19 08:40:41;;;;;;;9.88;3.70;;;;;;;;;;4970040;28;20057;-73
2023/01/19 08:43:09;;;;;;;5.28;3.13;;;;;;;;;;4957966;28;20019;-73
2023/01/19 08:45:35;;;;;;;11.43;4.00;;;;;;;;;;4957074;29;20034;-76
2023/01/19 08:48:02;;;;;;;8.45;4.90;;;;;;;;;;4959926;29;20050;-75
2023/01/19 08:50:29;;;;;;;5.82;4.05;;;;;;;;;;4958255;29;20039;-73
2023/01/19 08:52:56;;;;;;;8.18;3.72;;;;;;;;;;4957720;29;20027;-74
2023/01/19 08:55:22;;;;;;;7.05;4.25;;;;;;;;;;4956048;28;20027;-74
2023/01/19 08:57:58;;;;;;;8.48;3.58;;;;;;;;;;4954221;29;20024;-73
2023/01/19 09:00:25;;;;;;;8.45;4.10;;;;;;;;;;4953903;29;20023;-73
2023/01/19 09:02:51;;;;;;;5.50;3.00;;;;;;;;;;4953833;28;20373;-73
2023/01/19 09:05:18;;;;;;;5.55;3.03;;;;;;;;;;4955584;29;20110;-73
2023/01/19 09:07:46;;;;;;;4.78;2.88;;;;;;;;;;4957190;29;20027;-73
2023/01/19 09:10:12;;;;;;;4.10;2.70;;;;;;;;;;4956531;28;20059;-76
2023/01/19 09:12:38;;;;;;;3.53;3.03;;;;;;;;;;4953321;29;20066;-73
2023/01/19 09:15:04;;;;;;;6.95;3.83;;;;;;;;;;4952720;29;20042;-73
2023/01/19 09:17:30;;;;;;;5.65;2.85;;;;;;;;;;4954157;29;20034;-73
2023/01/19 09:19:57;;;;;;;4.55;2.53;;;;;;;;;;4952929;29;20031;-73
2023/01/19 09:22:23;;;;;;;5.32;3.35;;;;;;;;;;4953907;28;20046;-73
2023/01/19 09:24:49;;;;;;;6.68;2.72;;;;;;;;;;4954907;29;20504;-74
2023/01/19 09:27:15;;;;;;;8.93;4.93;;;;;;;;;;4953477;29;20023;-72
2023/01/19 09:29:42;;;;;;;4.85;3.13;;;;;;;;;;4952236;29;20054;-73
2023/01/19 09:32:10;;;;;;;7.07;3.67;;;;;;;;;;4952067;29;20134;-72
2023/01/19 09:34:36;;;;;;;12.15;5.78;;;;;;;;;;4953230;28;20055;-73
2023/01/19 09:37:02;;;;;;;19.35;6.95;;;;;;;;;;4953790;29;20055;-73
2023/01/19 09:39:28;;;;;;;6.30;3.35;;;;;;;;;;4953719;28;20074;-73
2023/01/19 09:42:13;;;;;;;7.57;3.80;;;;;;;;;;4953874;29;20071;-74
2023/01/19 09:44:40;;;;;;;6.03;3.25;;;;;;;;;;4955046;29;20024;-73
2023/01/19 09:47:14;;;;;;;5.20;2.90;;;;;;;;;;4953266;29;20031;-76
2023/01/19 09:49:42;;;;;;;4.38;3.03;;;;;;;;;;4951227;29;20487;-74
2023/01/19 09:52:10;;;;;;;3.90;3.05;;;;;;;;;;4950700;28;20032;-75
2023/01/19 09:54:42;;;;;;;3.70;2.58;;;;;;;;;;4949692;29;20040;-75
2023/01/19 09:57:13;;;;;;;1.95;1.40;;;;;;;;;;4950362;28;20031;-78
2023/01/19 09:59:39;;;;;;;2.95;1.85;;;;;;;;;;4950617;28;20498;-74
2023/01/19 10:02:05;;;;;;;2.85;2.05;;;;;;;;;;4950534;28;20023;-73
2023/01/19 10:04:37;;;;;;;4.75;2.25;;;;;;;;;;4952957;28;20040;-73
2023/01/19 10:07:23;;;;;;;3.88;2.40;;;;;;;;;;4952444;29;20035;-74
2023/01/19 10:09:52;;;;;;;6.03;2.60;;;;;;;;;;4950400;29;20451;-76
2023/01/19 10:12:29;;;;;;;5.35;2.45;;;;;;;;;;4950124;29;20037;-75
2023/01/19 10:15:15;;;;;;;3.65;2.65;;;;;;;;;;4964962;28;20031;-73
2023/01/19 10:17:41;;;;;;;2.92;2.13;;;;;;;;;;4943245;28;20078;-73
2023/01/19 10:20:14;;;;;;;3.05;1.92;;;;;;;;;;4949862;29;20399;-76
2023/01/19 10:22:49;;;;;;;4.47;2.15;;;;;;;;;;4950648;29;20031;-77
2023/01/19 10:25:18;;;;;;;4.55;2.78;;;;;;;;;;4964871;28;20031;-75
2023/01/19 10:27:45;;;;;;;7.85;2.30;;;;;;;;;;4950350;29;20034;-77
2023/01/19 10:30:16;;;;;;;4.45;2.33;;;;;;;;;;4967009;28;20051;-78
2023/01/19 10:32:43;;;;;;;2.63;2.38;;;;;;;;;;4951152;29;20054;-77
2023/01/19 10:35:20;;;;;;;4.43;2.72;;;;;;;;;;4952635;28;20503;-77
2023/01/19 10:37:47;;;;;;;2.65;2.20;;;;;;;;;;4950058;28;20480;-78
2023/01/19 10:40:26;;;;;;;3.30;2.30;;;;;;;;;;4949910;29;20515;-74
2023/01/19 10:42:53;;;;;;;3.97;3.35;;;;;;;;;;4950016;29;20023;-76
2023/01/19 10:45:21;;;;;;;3.50;2.53;;;;;;;;;;4964747;28;20404;-74
2023/01/19 10:47:47;;;;;;;4.00;2.33;;;;;;;;;;4949289;29;20030;-74
2023/01/19 10:50:22;;;;;;;3.38;2.38;;;;;;;;;;4949477;29;20039;-74
2023/01/19 10:52:53;;;;;;;3.70;2.42;;;;;;;;;;4950156;29;20047;-75
2023/01/19 10:55:26;;;;;;;4.03;2.53;;;;;;;;;;4950884;29;20031;-78
2023/01/19 10:57:53;;;;;;;6.30;1.85;;;;;;;;;;4950977;29;20038;-78
2023/01/19 11:00:18;;;;;;;2.55;2.00;;;;;;;;;;4950755;29;20039;-76
2023/01/19 11:02:50;;;;;;;5.78;2.88;;;;;;;;;;4949466;29;20027;-77
2023/01/19 11:05:22;;;;;;;2.80;2.10;;;;;;;;;;4950597;28;20027;-79
2023/01/19 11:07:48;;;;;;;3.22;2.22;;;;;;;;;;4951537;29;20027;-76
2023/01/19 11:10:19;;;;;;;2.58;1.88;;;;;;;;;;4948426;29;20035;-77
2023/01/19 11:12:47;;;;;;;2.08;1.80;;;;;;;;;;4948221;29;20035;-74
2023/01/19 11:15:20;;;;;;;4.55;2.53;;;;;;;;;;4949345;28;20039;-74
2023/01/19 11:17:50;;;;;;;3.38;2.13;;;;;;;;;;4949247;29;20028;-74
2023/01/19 11:20:27;;;;;;;4.85;1.70;;;;;;;;;;4949253;28;20114;-74
2023/01/19 11:23:12;;;;;;;7.15;2.90;;;;;;;;;;4949195;29;20031;-76
2023/01/19 11:25:38;;;;;;;7.13;3.08;;;;;;;;;;4949350;29;20498;-74
2023/01/19 11:28:04;;;;;;;3.13;2.47;;;;;;;;;;4947839;29;20038;-77
2023/01/19 11:30:35;;;;;;;5.82;2.78;;;;;;;;;;4949722;29;20102;-75
2023/01/19 11:33:01;;;;;;;5.07;3.17;;;;;;;;;;4949136;29;20036;-74
2023/01/19 11:35:30;;;;;;;8.10;3.33;;;;;;;;;;4948847;29;20401;-75
2023/01/19 11:38:11;;;;;;;2.88;2.20;;;;;;;;;;4949000;29;20059;-75
2023/01/19 11:40:37;;;;;;;4.35;1.95;;;;;;;;;;4949425;29;20042;-74
2023/01/19 11:43:04;;;;;;;4.20;2.28;;;;;;;;;;4948248;29;20027;-75
2023/01/19 11:45:32;;;;;;;2.50;1.40;;;;;;;;;;4949770;29;20106;-80
2023/01/19 11:48:01;;;;;;;1.50;1.40;;;;;;;;;;4947728;29;20016;-75
2023/01/19 11:50:40;;;;;;;2.95;1.65;;;;;;;;;;4949469;28;20047;-77
2023/01/19 11:53:23;;;;;;;3.97;1.50;;;;;;;;;;4949991;29;20971;-78
2023/01/19 11:55:56;;;;;;;4.88;1.60;;;;;;;;;;4949983;28;20031;-77
2023/01/19 11:58:23;;;;;;;3.58;1.73;;;;;;;;;;4949752;29;20032;-78
2023/01/19 12:00:59;;;;;;;2.03;1.15;;;;;;;;;;4949465;29;20039;-76
2023/01/19 12:03:31;;;;;;;4.00;1.80;;;;;;;;;;4952787;29;20023;-77
2023/01/19 12:06:06;;;;;;;1.63;1.52;;;;;;;;;;4960240;29;20035;-76
2023/01/19 12:08:36;;;;;;;1.23;1.13;;;;;;;;;;4960160;29;20023;-78
2023/01/19 12:11:03;;;;;;;1.38;1.27;;;;;;;;;;4963150;29;20039;-76
2023/01/19 12:13:30;;;;;;;2.35;1.33;;;;;;;;;;4961031;29;20027;-80
2023/01/19 12:16:08;;;;;;;2.05;1.30;;;;;;;;;;4966492;28;20027;-82
2023/01/19 12:18:54;;;;;;;1.77;1.48;;;;;;;;;;4972867;29;20046;-79
2023/01/19 12:21:20;;;;;;;0.90;0.85;;;;;;;;;;4973237;28;20023;-75
2023/01/19 12:24:04;;;;;;;0.82;0.82;;;;;;;;;;4969821;29;20058;-85
2023/01/19 12:26:33;;;;;;;1.52;1.00;;;;;;;;;;4957720;29;20047;-87
2023/01/19 12:29:07;;;;;;;1.33;1.23;;;;;;;;;;4948591;28;20031;-79
2023/01/19 12:31:33;;;;;;;1.88;0.90;;;;;;;;;;4930823;29;20071;-80
2023/01/19 12:34:19;;;;;;;2.17;0.82;;;;;;;;;;4932597;29;20020;-86
2023/01/19 12:36:45;;;;;;;1.20;1.00;;;;;;;;;;4950441;29;20232;-81
2023/01/19 12:39:11;;;;;;;1.35;1.02;;;;;;;;;;4954496;28;20023;-85
2023/01/19 12:41:38;;;;;;;1.95;0.80;;;;;;;;;;4957988;29;20027;-86
2023/01/19 12:44:10;;;;;;;2.10;1.30;;;;;;;;;;4955451;29;20384;-83
2023/01/19 12:46:37;;;;;;;3.95;1.90;;;;;;;;;;4936337;29;20578;-79
2023/01/19 12:49:09;;;;;;;1.30;0.90;;;;;;;;;;4935778;29;20778;-81
2023/01/19 12:51:35;;;;;;;1.65;1.23;;;;;;;;;;4936057;29;20047;-79
2023/01/19 12:54:04;;;;;;;1.48;1.00;;;;;;;;;;4954539;29;20082;-80
2023/01/19 12:56:32;;;;;;;1.83;1.30;;;;;;;;;;4972075;28;20121;-80
2023/01/19 12:58:58;;;;;;;2.50;1.23;;;;;;;;;;4970909;28;20760;-80
2023/01/19 13:01:25;;;;;;;3.17;1.30;;;;;;;;;;4973277;28;20030;-79
2023/01/19 13:04:26;;;;;;;1.58;1.15;;;;;;;;;;4973483;28;20027;-81
2023/01/19 13:06:52;;;;;;;1.73;1.10;;;;;;;;;;4975753;28;20121;-77
2023/01/19 13:09:29;;;;;;;4.05;0.82;;;;;;;;;;4962922;29;20024;-80
2023/01/19 13:12:10;;;;;;;2.10;1.50;;;;;;;;;;4956543;29;20186;-77
2023/01/19 13:14:37;;;;;;;2.95;1.90;;;;;;;;;;4953244;29;20089;-80
2023/01/19 13:17:05;;;;;;;1.90;1.30;;;;;;;;;;4968624;28;20028;-80
2023/01/19 13:19:37;;;;;;;3.35;1.52;;;;;;;;;;4955961;29;20066;-81
2023/01/19 13:22:21;;;;;;;2.47;2.28;;;;;;;;;;4971075;28;20034;-78
2023/01/19 13:25:05;;;;;;;2.30;1.35;;;;;;;;;;4968043;28;20054;-80
2023/01/19 13:27:31;;;;;;;1.67;1.55;;;;;;;;;;4965902;28;20029;-80
2023/01/19 13:29:57;;;;;;;2.15;1.98;;;;;;;;;;4966857;28;20027;-80
2023/01/19 13:32:24;;;;;;;1.60;1.50;;;;;;;;;;4967350;28;20034;-77
2023/01/19 13:34:57;;;;;;;2.60;1.60;;;;;;;;;;4957000;28;20026;-79
2023/01/19 13:37:26;;;;;;;2.45;1.23;;;;;;;;;;4953525;29;20039;-78
2023/01/19 13:39:53;;;;;;;1.30;1.20;;;;;;;;;;4954090;29;20035;-81
2023/01/19 13:42:19;;;;;;;3.13;1.70;;;;;;;;;;4950832;29;20034;-80
2023/01/19 13:44:51;;;;;;;1.48;1.38;;;;;;;;;;4954135;29;20376;-81
2023/01/19 13:47:52;;;;;;;1.55;1.30;;;;;;;;;;4952732;29;20031;-78
2023/01/19 13:50:23;;;;;;;7.25;1.45;;;;;;;;;;4930436;29;20062;-78
2023/01/19 13:52:50;;;;;;;4.13;1.75;;;;;;;;;;4946825;29;20050;-79
2023/01/19 13:55:18;;;;;;;2.05;1.50;;;;;;;;;;4950286;29;20023;-79
2023/01/19 13:57:45;;;;;;;1.50;1.33;;;;;;;;;;4953734;29;20078;-80
2023/01/19 14:00:11;;;;;;;3.15;1.65;;;;;;;;;;4969182;28;20082;-80
2023/01/19 14:02:37;;;;;;;2.42;1.60;;;;;;;;;;4968394;28;20074;-81
2023/01/19 14:05:20;;;;;;;2.72;1.33;;;;;;;;;;4958654;29;20164;-80
2023/01/19 14:07:46;;;;;;;5.68;1.58;;;;;;;;;;4952650;29;20023;-80
2023/01/19 14:10:13;;;;;;;2.47;1.70;;;;;;;;;;4969552;28;20035;-79
2023/01/19 14:12:40;;;;;;;6.40;1.17;;;;;;;;;;4965135;28;20066;-79
2023/01/19 14:15:12;;;;;;;1.63;1.13;;;;;;;;;;4950757;29;20031;-79
2023/01/19 14:17:38;;;;;;;1.15;1.13;;;;;;;;;;4957626;28;20034;-81
2023/01/19 14:20:05;;;;;;;1.27;1.13;;;;;;;;;;4972740;28;20045;-82
2023/01/19 14:22:38;;;;;;;1.90;1.42;;;;;;;;;;4975785;28;20023;-80
2023/01/19 14:25:23;;;;;;;2.90;1.30;;;;;;;;;;4971289;28;20035;-82
2023/01/19 14:27:49;;;;;;;1.92;1.50;;;;;;;;;;4968474;28;20511;-80
2023/01/19 14:30:23;;;;;;;1.75;1.15;;;;;;;;;;4972004;28;20107;-78
2023/01/19 14:32:49;;;;;;;5.78;1.50;;;;;;;;;;4957699;28;20027;-78
2023/01/19 14:35:23;;;;;;;2.10;1.17;;;;;;;;;;4973518;28;20401;-79
2023/01/19 14:37:50;;;;;;;2.47;1.35;;;;;;;;;;4959765;29;20027;-80
2023/01/19 14:40:21;;;;;;;2.67;1.65;;;;;;;;;;4954619;28;20028;-79
2023/01/19 14:43:02;;;;;;;2.55;2.20;;;;;;;;;;4949869;29;20031;-79
2023/01/19 14:45:27;;;;;;;2.80;1.00;;;;;;;;;;4950056;29;20019;-77
2023/01/19 14:47:56;;;;;;;2.20;1.95;;;;;;;;;;4949736;29;20054;-78
2023/01/19 14:50:24;;;;;;;2.65;2.05;;;;;;;;;;4947564;29;20078;-78
2023/01/19 14:52:56;;;;;;;3.78;1.88;;;;;;;;;;4951438;29;20054;-78
2023/01/19 14:55:25;;;;;;;3.10;1.75;;;;;;;;;;4949624;29;20453;-78
2023/01/19 14:57:51;;;;;;;3.92;1.73;;;;;;;;;;4953412;29;20503;-79
2023/01/19 15:00:18;;;;;;;7.57;3.00;;;;;;;;;;4951167;29;20031;-83